sensor_id;sensor_type;location;lat;lon;timestamp;P1;durP1;ratioP1;P2;durP2;ratioP2
80253;SDS011;69563;37.974;23.708;2023-06-26T00:02:20;13.30;;;5.80;;
80253;SDS011;69563;37.974;23.708;2023-06-26T00:04:46;14.57;;;5.80;;
80253;SDS011;69563;37.974;23.708;2023-06-26T00:07:11;12.80;;;6.15;;
80253;SDS011;69563;37.974;23.708;2023-06-26T00:09:37;16.00;;;5.50;;
80253;SDS011;69563;37.974;23.708;2023-06-26T00:12:03;14.68;;;5.68;;
80253;SDS011;69563;37.974;23.708;2023-06-26T00:14:29;13.82;;;6.25;;
80253;SDS011;69563;37.974;23.708;2023-06-26T00:16:55;11.07;;;6.20;;
80253;SDS011;69563;37.974;23.708;2023-06-26T00:19:20;13.02;;;5.75;;
80253;SDS011;69563;37.974;23.708;2023-06-26T00:21:46;13.20;;;5.75;;
80253;SDS011;69563;37.974;23.708;2023-06-26T00:24:16;13.43;;;6.40;;
80253;SDS011;69563;37.974;23.708;2023-06-26T00:26:42;12.00;;;6.03;;
80253;SDS011;69563;37.974;23.708;2023-06-26T00:29:10;11.48;;;6.20;;
80253;SDS011;69563;37.974;23.708;2023-06-26T00:31:36;12.57;;;5.82;;
80253;SDS011;69563;37.974;23.708;2023-06-26T00:34:03;11.23;;;5.80;;
80253;SDS011;69563;37.974;23.708;2023-06-26T00:36:29;13.27;;;6.32;;
80253;SDS011;69563;37.974;23.708;2023-06-26T00:38:54;14.13;;;5.97;;
80253;SDS011;69563;37.974;23.708;2023-06-26T00:41:20;10.52;;;5.82;;
80253;SDS011;69563;37.974;23.708;2023-06-26T00:43:46;14.68;;;6.40;;
80253;SDS011;69563;37.974;23.708;2023-06-26T00:46:12;15.02;;;6.07;;
80253;SDS011;69563;37.974;23.708;2023-06-26T00:48:39;16.25;;;6.43;;
80253;SDS011;69563;37.974;23.708;2023-06-26T00:51:07;14.05;;;6.57;;
80253;SDS011;69563;37.974;23.708;2023-06-26T00:53:33;12.18;;;5.95;;
80253;SDS011;69563;37.974;23.708;2023-06-26T00:56:00;14.65;;;6.22;;
80253;SDS011;69563;37.974;23.708;2023-06-26T00:58:27;15.00;;;6.53;;
80253;SDS011;69563;37.974;23.708;2023-06-26T01:00:53;11.65;;;5.95;;
80253;SDS011;69563;37.974;23.708;2023-06-26T01:03:22;11.27;;;6.00;;
80253;SDS011;69563;37.974;23.708;2023-06-26T01:05:52;15.05;;;6.43;;
80253;SDS011;69563;37.974;23.708;2023-06-26T01:08:21;12.20;;;6.10;;
80253;SDS011;69563;37.974;23.708;2023-06-26T01:10:48;10.90;;;5.82;;
80253;SDS011;69563;37.974;23.708;2023-06-26T01:13:14;11.50;;;5.70;;
80253;SDS011;69563;37.974;23.708;2023-06-26T01:15:41;13.52;;;5.78;;
80253;SDS011;69563;37.974;23.708;2023-06-26T01:18:06;11.38;;;5.72;;
80253;SDS011;69563;37.974;23.708;2023-06-26T01:20:34;11.88;;;5.90;;
80253;SDS011;69563;37.974;23.708;2023-06-26T01:28:38;11.85;;;5.40;;
80253;SDS011;69563;37.974;23.708;2023-06-26T01:31:06;10.82;;;5.80;;
80253;SDS011;69563;37.974;23.708;2023-06-26T01:33:33;11.63;;;5.35;;
80253;SDS011;69563;37.974;23.708;2023-06-26T01:36:00;13.20;;;5.78;;
80253;SDS011;69563;37.974;23.708;2023-06-26T01:38:26;11.55;;;5.50;;
80253;SDS011;69563;37.974;23.708;2023-06-26T01:40:52;12.07;;;5.90;;
80253;SDS011;69563;37.974;23.708;2023-06-26T01:44:01;10.95;;;5.80;;
80253;SDS011;69563;37.974;23.708;2023-06-26T01:51:38;13.38;;;6.03;;
80253;SDS011;69563;37.974;23.708;2023-06-26T01:54:14;12.30;;;5.93;;
80253;SDS011;69563;37.974;23.708;2023-06-26T01:56:45;11.57;;;6.20;;
80253;SDS011;69563;37.974;23.708;2023-06-26T01:59:13;11.80;;;6.32;;
80253;SDS011;69563;37.974;23.708;2023-06-26T02:01:40;14.25;;;6.63;;
80253;SDS011;69563;37.974;23.708;2023-06-26T02:04:06;11.60;;;6.53;;
80253;SDS011;69563;37.974;23.708;2023-06-26T02:06:32;13.07;;;6.40;;
80253;SDS011;69563;37.974;23.708;2023-06-26T02:08:58;13.35;;;6.05;;
80253;SDS011;69563;37.974;23.708;2023-06-26T02:11:23;11.75;;;6.50;;
80253;SDS011;69563;37.974;23.708;2023-06-26T02:13:49;11.80;;;5.85;;
80253;SDS011;69563;37.974;23.708;2023-06-26T02:16:15;12.23;;;6.07;;
80253;SDS011;69563;37.974;23.708;2023-06-26T02:18:40;10.95;;;6.15;;
80253;SDS011;69563;37.974;23.708;2023-06-26T02:21:06;13.05;;;5.97;;
80253;SDS011;69563;37.974;23.708;2023-06-26T02:23:32;9.80;;;5.50;;
80253;SDS011;69563;37.974;23.708;2023-06-26T02:25:58;10.73;;;5.95;;
80253;SDS011;69563;37.974;23.708;2023-06-26T02:28:24;11.38;;;5.53;;
80253;SDS011;69563;37.974;23.708;2023-06-26T02:30:50;10.07;;;5.90;;
80253;SDS011;69563;37.974;23.708;2023-06-26T02:33:15;11.18;;;5.88;;
80253;SDS011;69563;37.974;23.708;2023-06-26T02:35:41;11.50;;;5.75;;
80253;SDS011;69563;37.974;23.708;2023-06-26T02:38:07;14.50;;;6.00;;
80253;SDS011;69563;37.974;23.708;2023-06-26T02:40:33;10.50;;;5.50;;
80253;SDS011;69563;37.974;23.708;2023-06-26T02:42:59;9.82;;;5.55;;
80253;SDS011;69563;37.974;23.708;2023-06-26T02:45:24;10.32;;;5.68;;
80253;SDS011;69563;37.974;23.708;2023-06-26T02:47:50;11.48;;;5.30;;
80253;SDS011;69563;37.974;23.708;2023-06-26T02:50:16;8.70;;;5.45;;
80253;SDS011;69563;37.974;23.708;2023-06-26T02:52:42;12.23;;;5.80;;
80253;SDS011;69563;37.974;23.708;2023-06-26T02:55:07;12.20;;;5.85;;
80253;SDS011;69563;37.974;23.708;2023-06-26T02:57:33;12.68;;;5.90;;
80253;SDS011;69563;37.974;23.708;2023-06-26T02:59:59;12.13;;;6.00;;
80253;SDS011;69563;37.974;23.708;2023-06-26T03:02:24;11.25;;;6.07;;
80253;SDS011;69563;37.974;23.708;2023-06-26T03:04:50;10.20;;;5.70;;
80253;SDS011;69563;37.974;23.708;2023-06-26T03:07:17;10.65;;;5.70;;
80253;SDS011;69563;37.974;23.708;2023-06-26T03:09:43;11.65;;;5.80;;
80253;SDS011;69563;37.974;23.708;2023-06-26T03:12:09;14.23;;;6.18;;
80253;SDS011;69563;37.974;23.708;2023-06-26T03:14:34;9.73;;;6.07;;
80253;SDS011;69563;37.974;23.708;2023-06-26T03:17:00;13.15;;;5.82;;
80253;SDS011;69563;37.974;23.708;2023-06-26T03:19:28;14.40;;;5.60;;
80253;SDS011;69563;37.974;23.708;2023-06-26T03:21:54;10.27;;;6.13;;
80253;SDS011;69563;37.974;23.708;2023-06-26T03:24:20;13.77;;;6.53;;
80253;SDS011;69563;37.974;23.708;2023-06-26T03:26:46;12.65;;;6.32;;
80253;SDS011;69563;37.974;23.708;2023-06-26T03:29:12;13.98;;;6.20;;
80253;SDS011;69563;37.974;23.708;2023-06-26T03:31:38;10.90;;;5.72;;
80253;SDS011;69563;37.974;23.708;2023-06-26T03:34:03;12.93;;;6.30;;
80253;SDS011;69563;37.974;23.708;2023-06-26T03:36:29;13.80;;;6.18;;
80253;SDS011;69563;37.974;23.708;2023-06-26T03:38:55;17.20;;;6.35;;
80253;SDS011;69563;37.974;23.708;2023-06-26T03:41:22;10.43;;;5.82;;
80253;SDS011;69563;37.974;23.708;2023-06-26T03:43:48;12.27;;;5.82;;
80253;SDS011;69563;37.974;23.708;2023-06-26T03:46:14;12.88;;;6.05;;
80253;SDS011;69563;37.974;23.708;2023-06-26T03:48:40;15.68;;;5.95;;
80253;SDS011;69563;37.974;23.708;2023-06-26T03:51:06;13.73;;;5.70;;
80253;SDS011;69563;37.974;23.708;2023-06-26T03:53:32;10.80;;;5.68;;
80253;SDS011;69563;37.974;23.708;2023-06-26T03:55:58;11.73;;;5.65;;
80253;SDS011;69563;37.974;23.708;2023-06-26T03:58:24;10.75;;;5.70;;
80253;SDS011;69563;37.974;23.708;2023-06-26T04:00:50;12.00;;;5.65;;
80253;SDS011;69563;37.974;23.708;2023-06-26T04:03:16;10.27;;;5.57;;
80253;SDS011;69563;37.974;23.708;2023-06-26T04:05:42;10.95;;;5.70;;
80253;SDS011;69563;37.974;23.708;2023-06-26T04:08:08;11.02;;;5.20;;
80253;SDS011;69563;37.974;23.708;2023-06-26T04:10:34;10.43;;;5.20;;
80253;SDS011;69563;37.974;23.708;2023-06-26T04:13:01;10.23;;;5.22;;
80253;SDS011;69563;37.974;23.708;2023-06-26T04:15:27;10.85;;;5.53;;
80253;SDS011;69563;37.974;23.708;2023-06-26T04:17:53;10.55;;;5.00;;
80253;SDS011;69563;37.974;23.708;2023-06-26T04:20:19;165.88;;;13.70;;
80253;SDS011;69563;37.974;23.708;2023-06-26T04:22:44;62.45;;;7.90;;
80253;SDS011;69563;37.974;23.708;2023-06-26T04:25:10;30.13;;;6.25;;
80253;SDS011;69563;37.974;23.708;2023-06-26T04:27:39;18.92;;;5.38;;
80253;SDS011;69563;37.974;23.708;2023-06-26T04:30:05;15.40;;;5.97;;
80253;SDS011;69563;37.974;23.708;2023-06-26T04:32:31;15.82;;;5.47;;
80253;SDS011;69563;37.974;23.708;2023-06-26T04:34:56;16.40;;;5.60;;
80253;SDS011;69563;37.974;23.708;2023-06-26T04:37:22;17.48;;;5.97;;
80253;SDS011;69563;37.974;23.708;2023-06-26T04:39:49;23.10;;;6.28;;
80253;SDS011;69563;37.974;23.708;2023-06-26T04:42:15;23.10;;;6.38;;
80253;SDS011;69563;37.974;23.708;2023-06-26T04:44:41;14.15;;;5.78;;
80253;SDS011;69563;37.974;23.708;2023-06-26T04:47:08;12.77;;;5.30;;
80253;SDS011;69563;37.974;23.708;2023-06-26T04:49:34;23.83;;;6.15;;
80253;SDS011;69563;37.974;23.708;2023-06-26T04:52:17;18.30;;;5.72;;
80253;SDS011;69563;37.974;23.708;2023-06-26T04:54:43;17.70;;;5.90;;
80253;SDS011;69563;37.974;23.708;2023-06-26T04:57:08;16.13;;;5.28;;
80253;SDS011;69563;37.974;23.708;2023-06-26T04:59:34;13.50;;;5.70;;
80253;SDS011;69563;37.974;23.708;2023-06-26T05:02:00;17.25;;;5.75;;
80253;SDS011;69563;37.974;23.708;2023-06-26T05:04:26;12.98;;;5.53;;
80253;SDS011;69563;37.974;23.708;2023-06-26T05:06:51;12.13;;;5.53;;
80253;SDS011;69563;37.974;23.708;2023-06-26T05:09:17;11.90;;;5.65;;
80253;SDS011;69563;37.974;23.708;2023-06-26T05:11:43;12.40;;;5.40;;
80253;SDS011;69563;37.974;23.708;2023-06-26T05:14:08;12.45;;;5.18;;
80253;SDS011;69563;37.974;23.708;2023-06-26T05:16:34;12.63;;;5.10;;
80253;SDS011;69563;37.974;23.708;2023-06-26T05:19:00;13.20;;;6.03;;
80253;SDS011;69563;37.974;23.708;2023-06-26T05:21:27;11.00;;;4.30;;
80253;SDS011;69563;37.974;23.708;2023-06-26T05:23:54;9.57;;;3.78;;
80253;SDS011;69563;37.974;23.708;2023-06-26T05:26:22;10.70;;;4.32;;
80253;SDS011;69563;37.974;23.708;2023-06-26T05:28:49;8.68;;;3.88;;
80253;SDS011;69563;37.974;23.708;2023-06-26T05:31:15;8.60;;;3.78;;
80253;SDS011;69563;37.974;23.708;2023-06-26T05:33:43;8.73;;;3.40;;
80253;SDS011;69563;37.974;23.708;2023-06-26T05:36:09;9.13;;;3.40;;
80253;SDS011;69563;37.974;23.708;2023-06-26T05:38:37;8.00;;;3.42;;
80253;SDS011;69563;37.974;23.708;2023-06-26T05:41:03;6.00;;;3.22;;
80253;SDS011;69563;37.974;23.708;2023-06-26T05:43:29;5.00;;;2.90;;
80253;SDS011;69563;37.974;23.708;2023-06-26T05:45:56;6.38;;;3.30;;
80253;SDS011;69563;37.974;23.708;2023-06-26T05:48:22;5.70;;;3.08;;
80253;SDS011;69563;37.974;23.708;2023-06-26T05:50:48;6.43;;;3.22;;
80253;SDS011;69563;37.974;23.708;2023-06-26T05:53:14;5.93;;;3.20;;
80253;SDS011;69563;37.974;23.708;2023-06-26T05:55:40;5.05;;;3.00;;
80253;SDS011;69563;37.974;23.708;2023-06-26T05:58:09;7.38;;;3.30;;
80253;SDS011;69563;37.974;23.708;2023-06-26T06:00:36;3.90;;;2.70;;
80253;SDS011;69563;37.974;23.708;2023-06-26T06:03:04;6.72;;;2.78;;
80253;SDS011;69563;37.974;23.708;2023-06-26T06:05:30;6.07;;;2.80;;
80253;SDS011;69563;37.974;23.708;2023-06-26T06:07:56;5.03;;;2.33;;
80253;SDS011;69563;37.974;23.708;2023-06-26T06:10:21;4.90;;;2.28;;
80253;SDS011;69563;37.974;23.708;2023-06-26T06:12:47;6.22;;;2.20;;
80253;SDS011;69563;37.974;23.708;2023-06-26T06:15:13;3.90;;;2.25;;
80253;SDS011;69563;37.974;23.708;2023-06-26T06:17:39;5.10;;;2.20;;
80253;SDS011;69563;37.974;23.708;2023-06-26T06:20:05;3.88;;;1.90;;
80253;SDS011;69563;37.974;23.708;2023-06-26T06:22:31;4.13;;;2.10;;
80253;SDS011;69563;37.974;23.708;2023-06-26T06:24:57;4.97;;;1.98;;
80253;SDS011;69563;37.974;23.708;2023-06-26T06:27:23;3.50;;;2.10;;
80253;SDS011;69563;37.974;23.708;2023-06-26T06:29:48;5.25;;;2.03;;
80253;SDS011;69563;37.974;23.708;2023-06-26T06:32:14;4.10;;;2.17;;
80253;SDS011;69563;37.974;23.708;2023-06-26T06:34:40;4.32;;;1.83;;
80253;SDS011;69563;37.974;23.708;2023-06-26T06:37:05;6.55;;;1.92;;
80253;SDS011;69563;37.974;23.708;2023-06-26T06:39:31;4.35;;;2.08;;
80253;SDS011;69563;37.974;23.708;2023-06-26T06:41:57;6.63;;;2.28;;
80253;SDS011;69563;37.974;23.708;2023-06-26T06:44:23;6.13;;;2.20;;
80253;SDS011;69563;37.974;23.708;2023-06-26T06:46:49;3.78;;;2.15;;
80253;SDS011;69563;37.974;23.708;2023-06-26T06:49:14;5.32;;;2.20;;
80253;SDS011;69563;37.974;23.708;2023-06-26T06:51:40;4.63;;;2.10;;
80253;SDS011;69563;37.974;23.708;2023-06-26T06:54:06;4.65;;;2.05;;
80253;SDS011;69563;37.974;23.708;2023-06-26T06:56:32;6.00;;;2.40;;
80253;SDS011;69563;37.974;23.708;2023-06-26T06:58:57;4.65;;;2.13;;
80253;SDS011;69563;37.974;23.708;2023-06-26T07:01:23;4.45;;;2.08;;
80253;SDS011;69563;37.974;23.708;2023-06-26T07:03:52;4.63;;;2.00;;
80253;SDS011;69563;37.974;23.708;2023-06-26T07:06:20;5.28;;;2.30;;
80253;SDS011;69563;37.974;23.708;2023-06-26T07:08:46;5.22;;;2.30;;
80253;SDS011;69563;37.974;23.708;2023-06-26T07:11:12;4.88;;;2.22;;
80253;SDS011;69563;37.974;23.708;2023-06-26T07:13:38;4.80;;;2.47;;
80253;SDS011;69563;37.974;23.708;2023-06-26T07:16:03;4.53;;;2.65;;
80253;SDS011;69563;37.974;23.708;2023-06-26T07:18:50;7.57;;;2.63;;
80253;SDS011;69563;37.974;23.708;2023-06-26T07:21:20;7.30;;;2.35;;
80253;SDS011;69563;37.974;23.708;2023-06-26T07:23:47;5.95;;;2.38;;
80253;SDS011;69563;37.974;23.708;2023-06-26T07:26:13;6.97;;;2.40;;
80253;SDS011;69563;37.974;23.708;2023-06-26T07:28:40;3.95;;;2.22;;
80253;SDS011;69563;37.974;23.708;2023-06-26T07:31:06;5.88;;;2.22;;
80253;SDS011;69563;37.974;23.708;2023-06-26T07:33:32;5.97;;;2.47;;
80253;SDS011;69563;37.974;23.708;2023-06-26T07:35:57;6.93;;;2.50;;
80253;SDS011;69563;37.974;23.708;2023-06-26T07:38:23;7.13;;;2.08;;
80253;SDS011;69563;37.974;23.708;2023-06-26T07:40:49;8.93;;;2.05;;
80253;SDS011;69563;37.974;23.708;2023-06-26T07:43:15;3.53;;;2.05;;
80253;SDS011;69563;37.974;23.708;2023-06-26T07:45:40;5.70;;;2.33;;
80253;SDS011;69563;37.974;23.708;2023-06-26T07:48:06;4.35;;;2.33;;
80253;SDS011;69563;37.974;23.708;2023-06-26T07:50:33;2.83;;;2.05;;
80253;SDS011;69563;37.974;23.708;2023-06-26T07:52:59;4.28;;;2.10;;
80253;SDS011;69563;37.974;23.708;2023-06-26T07:55:25;4.43;;;2.30;;
80253;SDS011;69563;37.974;23.708;2023-06-26T07:57:51;5.20;;;2.45;;
80253;SDS011;69563;37.974;23.708;2023-06-26T08:00:17;4.55;;;2.25;;
80253;SDS011;69563;37.974;23.708;2023-06-26T08:02:43;6.85;;;2.40;;
80253;SDS011;69563;37.974;23.708;2023-06-26T08:05:09;6.15;;;2.20;;
80253;SDS011;69563;37.974;23.708;2023-06-26T08:07:34;6.55;;;2.20;;
80253;SDS011;69563;37.974;23.708;2023-06-26T08:10:00;5.25;;;2.47;;
80253;SDS011;69563;37.974;23.708;2023-06-26T08:12:32;5.53;;;2.60;;
80253;SDS011;69563;37.974;23.708;2023-06-26T08:14:57;3.70;;;2.25;;
80253;SDS011;69563;37.974;23.708;2023-06-26T08:17:23;4.25;;;2.40;;
80253;SDS011;69563;37.974;23.708;2023-06-26T08:19:49;3.75;;;2.10;;
80253;SDS011;69563;37.974;23.708;2023-06-26T08:22:15;5.28;;;2.55;;
80253;SDS011;69563;37.974;23.708;2023-06-26T08:24:40;5.85;;;2.47;;
80253;SDS011;69563;37.974;23.708;2023-06-26T08:27:06;5.05;;;2.38;;
80253;SDS011;69563;37.974;23.708;2023-06-26T08:29:32;4.47;;;2.30;;
80253;SDS011;69563;37.974;23.708;2023-06-26T08:31:58;4.60;;;2.38;;
80253;SDS011;69563;37.974;23.708;2023-06-26T08:34:24;3.88;;;2.20;;
80253;SDS011;69563;37.974;23.708;2023-06-26T08:36:53;4.25;;;2.58;;
80253;SDS011;69563;37.974;23.708;2023-06-26T08:39:18;5.18;;;2.40;;
80253;SDS011;69563;37.974;23.708;2023-06-26T08:41:44;4.85;;;2.60;;
80253;SDS011;69563;37.974;23.708;2023-06-26T08:44:10;6.60;;;2.50;;
80253;SDS011;69563;37.974;23.708;2023-06-26T08:46:36;4.72;;;2.30;;
80253;SDS011;69563;37.974;23.708;2023-06-26T08:49:13;5.05;;;2.60;;
80253;SDS011;69563;37.974;23.708;2023-06-26T08:51:46;3.97;;;2.35;;
80253;SDS011;69563;37.974;23.708;2023-06-26T08:54:30;5.60;;;2.60;;
80253;SDS011;69563;37.974;23.708;2023-06-26T08:57:02;3.92;;;2.70;;
80253;SDS011;69563;37.974;23.708;2023-06-26T08:59:38;4.47;;;2.40;;
80253;SDS011;69563;37.974;23.708;2023-06-26T09:02:04;4.93;;;2.58;;
80253;SDS011;69563;37.974;23.708;2023-06-26T09:04:30;3.53;;;2.20;;
80253;SDS011;69563;37.974;23.708;2023-06-26T09:06:56;5.68;;;2.50;;
80253;SDS011;69563;37.974;23.708;2023-06-26T09:09:21;5.00;;;2.63;;
80253;SDS011;69563;37.974;23.708;2023-06-26T09:11:47;5.28;;;2.55;;
80253;SDS011;69563;37.974;23.708;2023-06-26T09:14:13;6.05;;;2.65;;
80253;SDS011;69563;37.974;23.708;2023-06-26T09:16:40;5.15;;;2.53;;
80253;SDS011;69563;37.974;23.708;2023-06-26T09:19:10;4.57;;;2.35;;
80253;SDS011;69563;37.974;23.708;2023-06-26T09:21:41;3.83;;;2.28;;
80253;SDS011;69563;37.974;23.708;2023-06-26T09:24:08;4.88;;;2.10;;
80253;SDS011;69563;37.974;23.708;2023-06-26T09:26:38;3.88;;;2.30;;
80253;SDS011;69563;37.974;23.708;2023-06-26T09:29:05;5.85;;;2.90;;
80253;SDS011;69563;37.974;23.708;2023-06-26T09:31:32;4.00;;;2.55;;
80253;SDS011;69563;37.974;23.708;2023-06-26T09:33:58;4.38;;;2.80;;
80253;SDS011;69563;37.974;23.708;2023-06-26T09:36:29;4.97;;;2.88;;
80253;SDS011;69563;37.974;23.708;2023-06-26T09:38:59;6.03;;;2.50;;
80253;SDS011;69563;37.974;23.708;2023-06-26T09:41:26;4.63;;;2.88;;
80253;SDS011;69563;37.974;23.708;2023-06-26T09:43:52;6.00;;;3.00;;
80253;SDS011;69563;37.974;23.708;2023-06-26T09:48:57;8.05;;;2.72;;
80253;SDS011;69563;37.974;23.708;2023-06-26T09:51:28;5.32;;;2.90;;
80253;SDS011;69563;37.974;23.708;2023-06-26T09:54:01;5.50;;;3.08;;
80253;SDS011;69563;37.974;23.708;2023-06-26T09:56:28;5.68;;;2.55;;
80253;SDS011;69563;37.974;23.708;2023-06-26T09:58:58;5.40;;;2.80;;
80253;SDS011;69563;37.974;23.708;2023-06-26T10:01:26;3.67;;;2.60;;
80253;SDS011;69563;37.974;23.708;2023-06-26T10:03:53;4.30;;;2.65;;
80253;SDS011;69563;37.974;23.708;2023-06-26T10:06:22;6.47;;;2.50;;
80253;SDS011;69563;37.974;23.708;2023-06-26T10:08:56;5.30;;;2.90;;
80253;SDS011;69563;37.974;23.708;2023-06-26T10:11:25;3.92;;;2.83;;
80253;SDS011;69563;37.974;23.708;2023-06-26T10:14:14;6.10;;;2.95;;
80253;SDS011;69563;37.974;23.708;2023-06-26T10:16:41;4.50;;;2.35;;
80253;SDS011;69563;37.974;23.708;2023-06-26T10:19:09;5.00;;;2.50;;
80253;SDS011;69563;37.974;23.708;2023-06-26T10:21:37;6.60;;;2.80;;
80253;SDS011;69563;37.974;23.708;2023-06-26T10:24:05;5.60;;;2.40;;
80253;SDS011;69563;37.974;23.708;2023-06-26T10:26:31;3.50;;;2.13;;
80253;SDS011;69563;37.974;23.708;2023-06-26T10:29:07;5.22;;;2.38;;
80253;SDS011;69563;37.974;23.708;2023-06-26T10:31:33;4.38;;;2.50;;
80253;SDS011;69563;37.974;23.708;2023-06-26T10:34:00;4.75;;;2.53;;
80253;SDS011;69563;37.974;23.708;2023-06-26T10:36:28;3.78;;;2.17;;
80253;SDS011;69563;37.974;23.708;2023-06-26T10:38:56;4.28;;;2.58;;
80253;SDS011;69563;37.974;23.708;2023-06-26T10:41:24;4.88;;;2.38;;
80253;SDS011;69563;37.974;23.708;2023-06-26T10:46:28;5.45;;;2.50;;
80253;SDS011;69563;37.974;23.708;2023-06-26T10:48:58;5.10;;;2.40;;
80253;SDS011;69563;37.974;23.708;2023-06-26T10:51:25;4.50;;;2.30;;
80253;SDS011;69563;37.974;23.708;2023-06-26T10:53:55;4.60;;;2.28;;
80253;SDS011;69563;37.974;23.708;2023-06-26T10:56:21;3.58;;;2.05;;
80253;SDS011;69563;37.974;23.708;2023-06-26T10:59:24;3.53;;;2.17;;
80253;SDS011;69563;37.974;23.708;2023-06-26T11:07:23;3.75;;;1.85;;
80253;SDS011;69563;37.974;23.708;2023-06-26T11:10:08;3.67;;;2.25;;
80253;SDS011;69563;37.974;23.708;2023-06-26T11:17:39;8.75;;;2.72;;
80253;SDS011;69563;37.974;23.708;2023-06-26T11:20:06;6.57;;;3.00;;
80253;SDS011;69563;37.974;23.708;2023-06-26T11:22:34;7.47;;;3.58;;
80253;SDS011;69563;37.974;23.708;2023-06-26T11:25:02;7.38;;;3.70;;
80253;SDS011;69563;37.974;23.708;2023-06-26T11:27:32;9.25;;;3.55;;
80253;SDS011;69563;37.974;23.708;2023-06-26T11:30:03;7.00;;;3.63;;
80253;SDS011;69563;37.974;23.708;2023-06-26T11:32:32;8.65;;;4.00;;
80253;SDS011;69563;37.974;23.708;2023-06-26T11:34:58;7.32;;;3.95;;
80253;SDS011;69563;37.974;23.708;2023-06-26T11:37:25;6.50;;;3.95;;
80253;SDS011;69563;37.974;23.708;2023-06-26T11:39:51;6.85;;;3.75;;
80253;SDS011;69563;37.974;23.708;2023-06-26T11:42:17;6.70;;;3.83;;
80253;SDS011;69563;37.974;23.708;2023-06-26T11:44:44;7.47;;;3.65;;
80253;SDS011;69563;37.974;23.708;2023-06-26T11:47:17;6.57;;;3.90;;
80253;SDS011;69563;37.974;23.708;2023-06-26T11:49:47;9.00;;;4.20;;
80253;SDS011;69563;37.974;23.708;2023-06-26T11:52:14;5.32;;;3.50;;
80253;SDS011;69563;37.974;23.708;2023-06-26T11:54:51;6.05;;;3.80;;
80253;SDS011;69563;37.974;23.708;2023-06-26T11:57:17;5.57;;;3.75;;
80253;SDS011;69563;37.974;23.708;2023-06-26T11:59:44;7.07;;;3.55;;
80253;SDS011;69563;37.974;23.708;2023-06-26T12:02:10;5.68;;;3.70;;
80253;SDS011;69563;37.974;23.708;2023-06-26T12:04:46;4.47;;;3.20;;
80253;SDS011;69563;37.974;23.708;2023-06-26T12:07:11;5.95;;;3.50;;
80253;SDS011;69563;37.974;23.708;2023-06-26T12:09:41;6.85;;;3.50;;
80253;SDS011;69563;37.974;23.708;2023-06-26T12:12:11;6.55;;;3.42;;
80253;SDS011;69563;37.974;23.708;2023-06-26T12:14:39;5.95;;;3.70;;
80253;SDS011;69563;37.974;23.708;2023-06-26T12:17:09;5.50;;;3.38;;
80253;SDS011;69563;37.974;23.708;2023-06-26T12:20:23;6.50;;;3.70;;
80253;SDS011;69563;37.974;23.708;2023-06-26T12:22:50;7.50;;;3.72;;
80253;SDS011;69563;37.974;23.708;2023-06-26T12:25:23;7.45;;;3.70;;
80253;SDS011;69563;37.974;23.708;2023-06-26T12:27:49;6.68;;;4.30;;
80253;SDS011;69563;37.974;23.708;2023-06-26T12:30:15;5.88;;;3.80;;
80253;SDS011;69563;37.974;23.708;2023-06-26T12:32:43;5.32;;;3.50;;
80253;SDS011;69563;37.974;23.708;2023-06-26T12:35:11;7.15;;;4.32;;
80253;SDS011;69563;37.974;23.708;2023-06-26T12:37:37;5.28;;;3.67;;
80253;SDS011;69563;37.974;23.708;2023-06-26T12:40:15;6.22;;;3.95;;
80253;SDS011;69563;37.974;23.708;2023-06-26T12:42:49;6.65;;;3.80;;
80253;SDS011;69563;37.974;23.708;2023-06-26T12:45:15;5.93;;;3.90;;
80253;SDS011;69563;37.974;23.708;2023-06-26T12:47:41;6.85;;;3.67;;
80253;SDS011;69563;37.974;23.708;2023-06-26T12:50:07;5.80;;;3.90;;
80253;SDS011;69563;37.974;23.708;2023-06-26T12:52:33;6.95;;;3.65;;
80253;SDS011;69563;37.974;23.708;2023-06-26T12:54:59;5.35;;;3.53;;
80253;SDS011;69563;37.974;23.708;2023-06-26T12:57:25;5.35;;;3.97;;
80253;SDS011;69563;37.974;23.708;2023-06-26T12:59:51;6.18;;;4.10;;
80253;SDS011;69563;37.974;23.708;2023-06-26T13:02:17;6.30;;;3.67;;
80253;SDS011;69563;37.974;23.708;2023-06-26T13:04:43;5.80;;;3.90;;
80253;SDS011;69563;37.974;23.708;2023-06-26T13:07:10;5.38;;;4.00;;
80253;SDS011;69563;37.974;23.708;2023-06-26T13:09:36;5.80;;;3.53;;
80253;SDS011;69563;37.974;23.708;2023-06-26T13:12:03;6.07;;;3.40;;
80253;SDS011;69563;37.974;23.708;2023-06-26T13:14:29;5.65;;;3.80;;
80253;SDS011;69563;37.974;23.708;2023-06-26T13:16:56;7.93;;;4.20;;
80253;SDS011;69563;37.974;23.708;2023-06-26T13:19:21;7.05;;;5.03;;
80253;SDS011;69563;37.974;23.708;2023-06-26T13:21:47;7.32;;;5.25;;
80253;SDS011;69563;37.974;23.708;2023-06-26T13:24:13;8.40;;;5.15;;
80253;SDS011;69563;37.974;23.708;2023-06-26T13:26:38;8.10;;;5.70;;
80253;SDS011;69563;37.974;23.708;2023-06-26T13:29:04;9.98;;;5.40;;
80253;SDS011;69563;37.974;23.708;2023-06-26T13:31:30;7.55;;;4.97;;
80253;SDS011;69563;37.974;23.708;2023-06-26T13:33:57;10.63;;;5.18;;
80253;SDS011;69563;37.974;23.708;2023-06-26T13:36:23;9.55;;;5.20;;
80253;SDS011;69563;37.974;23.708;2023-06-26T13:38:50;8.57;;;5.07;;
80253;SDS011;69563;37.974;23.708;2023-06-26T13:41:23;11.20;;;5.87;;
80253;SDS011;69563;37.974;23.708;2023-06-26T13:43:50;10.00;;;6.03;;
80253;SDS011;69563;37.974;23.708;2023-06-26T13:46:16;10.65;;;6.18;;
80253;SDS011;69563;37.974;23.708;2023-06-26T13:48:43;30.10;;;10.52;;
80253;SDS011;69563;37.974;23.708;2023-06-26T13:51:09;26.60;;;8.88;;
80253;SDS011;69563;37.974;23.708;2023-06-26T13:53:35;16.83;;;8.35;;
80253;SDS011;69563;37.974;23.708;2023-06-26T13:56:00;20.08;;;7.60;;
80253;SDS011;69563;37.974;23.708;2023-06-26T13:58:26;17.65;;;7.32;;
80253;SDS011;69563;37.974;23.708;2023-06-26T14:00:53;14.30;;;6.60;;
80253;SDS011;69563;37.974;23.708;2023-06-26T14:03:19;16.48;;;6.28;;
80253;SDS011;69563;37.974;23.708;2023-06-26T14:05:45;11.60;;;6.05;;
80253;SDS011;69563;37.974;23.708;2023-06-26T14:08:10;9.27;;;5.28;;
80253;SDS011;69563;37.974;23.708;2023-06-26T14:10:37;10.10;;;5.70;;
80253;SDS011;69563;37.974;23.708;2023-06-26T14:13:03;9.27;;;5.38;;
80253;SDS011;69563;37.974;23.708;2023-06-26T14:15:29;8.32;;;4.72;;
80253;SDS011;69563;37.974;23.708;2023-06-26T14:17:55;10.77;;;5.13;;
80253;SDS011;69563;37.974;23.708;2023-06-26T14:20:22;6.70;;;4.40;;
80253;SDS011;69563;37.974;23.708;2023-06-26T14:22:48;8.40;;;4.78;;
80253;SDS011;69563;37.974;23.708;2023-06-26T14:25:14;6.90;;;4.70;;
80253;SDS011;69563;37.974;23.708;2023-06-26T14:27:41;7.63;;;4.50;;
80253;SDS011;69563;37.974;23.708;2023-06-26T14:30:07;8.73;;;4.68;;
80253;SDS011;69563;37.974;23.708;2023-06-26T14:32:34;8.18;;;4.80;;
80253;SDS011;69563;37.974;23.708;2023-06-26T14:35:00;9.07;;;4.90;;
80253;SDS011;69563;37.974;23.708;2023-06-26T14:37:29;7.22;;;4.68;;
80253;SDS011;69563;37.974;23.708;2023-06-26T14:39:55;9.63;;;5.03;;
80253;SDS011;69563;37.974;23.708;2023-06-26T14:42:21;8.60;;;5.50;;
80253;SDS011;69563;37.974;23.708;2023-06-26T14:44:50;10.35;;;5.13;;
80253;SDS011;69563;37.974;23.708;2023-06-26T14:47:16;8.65;;;5.13;;
80253;SDS011;69563;37.974;23.708;2023-06-26T14:49:42;8.02;;;4.80;;
80253;SDS011;69563;37.974;23.708;2023-06-26T14:52:08;9.00;;;5.53;;
80253;SDS011;69563;37.974;23.708;2023-06-26T14:54:34;7.18;;;5.38;;
80253;SDS011;69563;37.974;23.708;2023-06-26T14:57:04;6.23;;;5.30;;